createdAt,value
2022-12-22T00:02:37.929Z,96.60
2022-12-22T00:05:47.218Z,96.50
2022-12-22T00:08:32.924Z,96.60
2022-12-22T00:11:19.592Z,96.60
2022-12-22T00:14:06.367Z,96.70
2022-12-22T00:16:56.531Z,96.70
2022-12-22T00:19:46.710Z,96.40
2022-12-22T00:22:43.526Z,96.30
2022-12-22T00:25:36.891Z,96.50
2022-12-22T00:28:34.873Z,96.30
2022-12-22T00:31:20.943Z,96.40
2022-12-22T00:34:09.024Z,96.50
2022-12-22T00:36:55.843Z,96.30
2022-12-22T00:39:41.526Z,96.30
2022-12-22T00:42:30.095Z,96.20
2022-12-22T00:45:18.833Z,95.90
2022-12-22T00:48:05.764Z,95.90
2022-12-22T00:50:55.120Z,95.80
2022-12-22T00:53:46.918Z,95.70
2022-12-22T00:56:32.890Z,95.90
2022-12-22T00:59:19.074Z,95.80
2022-12-22T01:02:08.229Z,95.60
2022-12-22T01:05:05.212Z,95.50
2022-12-22T01:08:00.837Z,95.50
2022-12-22T01:10:46.806Z,95.30
2022-12-22T01:13:37.285Z,95.50
2022-12-22T01:16:25.317Z,95.50
2022-12-22T01:19:10.952Z,95.40
2022-12-22T01:21:56.609Z,95.30
2022-12-22T01:24:45.806Z,95.30
2022-12-22T01:27:34.211Z,95.40
2022-12-22T01:30:19.938Z,95.60
2022-12-22T01:33:08.948Z,95.50
2022-12-22T01:35:54.958Z,95.40
2022-12-22T01:38:41.073Z,95.40
2022-12-22T01:41:33.238Z,95.10
2022-12-22T01:44:31.241Z,95.00
2022-12-22T01:47:48.423Z,94.70
2022-12-22T01:50:44.762Z,94.70
2022-12-22T01:53:37.095Z,94.80
2022-12-22T01:56:27.925Z,94.90
2022-12-22T01:59:16.322Z,94.80
2022-12-22T02:02:03.094Z,95.00
2022-12-22T02:05:05.174Z,94.90
2022-12-22T02:08:15.280Z,94.50
2022-12-22T02:11:17.978Z,94.80
2022-12-22T02:14:35.550Z,94.90
2022-12-22T02:17:35.574Z,94.90
2022-12-22T02:20:27.946Z,95.10
2022-12-22T02:23:55.688Z,95.00
2022-12-22T02:26:49.291Z,95.20
2022-12-22T02:29:41.297Z,95.30
2022-12-22T02:32:30.540Z,95.10
2022-12-22T02:35:16.868Z,95.10
2022-12-22T02:38:42.265Z,95.30
2022-12-22T02:41:47.222Z,95.20
2022-12-22T02:44:58.910Z,95.10
2022-12-22T02:48:05.490Z,94.90
2022-12-22T02:51:02.449Z,95.10
2022-12-22T02:53:49.491Z,95.30
2022-12-22T02:56:35.743Z,95.40
2022-12-22T02:59:28.451Z,95.40
2022-12-22T03:02:15.102Z,95.10
2022-12-22T03:05:01.121Z,95.10
2022-12-22T03:07:47.492Z,95.20
2022-12-22T03:10:33.392Z,95.20
2022-12-22T03:13:19.809Z,95.30
2022-12-22T03:16:07.963Z,95.20
2022-12-22T03:18:59.191Z,95.20
2022-12-22T03:21:45.177Z,95.30
2022-12-22T03:24:34.060Z,95.20
2022-12-22T03:27:05.349Z,95.00
2022-12-22T03:29:32.711Z,95.10
2022-12-22T03:32:00.009Z,95.10
2022-12-22T03:34:27.782Z,95.20
2022-12-22T03:36:54.881Z,95.40
2022-12-22T03:39:28.297Z,95.30
2022-12-22T03:42:15.073Z,95.30
2022-12-22T03:45:00.799Z,95.00
2022-12-22T03:47:31.571Z,94.90
2022-12-22T03:49:58.832Z,95.20
2022-12-22T03:52:26.219Z,95.20
2022-12-22T03:54:54.047Z,95.30
2022-12-22T03:57:26.987Z,95.20
2022-12-22T04:00:00.353Z,95.00
2022-12-22T04:02:31.121Z,94.80
2022-12-22T04:04:58.242Z,94.60
2022-12-22T04:07:31.693Z,94.70
2022-12-22T04:10:18.685Z,94.70
2022-12-22T04:12:55.558Z,94.60
2022-12-22T04:15:30.662Z,94.70
2022-12-22T04:18:02.241Z,95.00
2022-12-22T04:20:29.585Z,95.10
2022-12-22T04:23:01.991Z,94.90
2022-12-22T04:25:29.861Z,94.80
2022-12-22T04:28:00.103Z,94.90
2022-12-22T04:30:27.284Z,95.00
2022-12-22T04:32:54.932Z,95.10
2022-12-22T04:35:22.476Z,95.40
2022-12-22T04:37:50.325Z,95.40
2022-12-22T04:40:17.492Z,95.40
2022-12-22T04:42:44.673Z,95.30
2022-12-22T04:45:12.341Z,95.40
2022-12-22T04:47:43.071Z,95.40
2022-12-22T04:50:35.700Z,95.50
2022-12-22T04:53:03.671Z,95.50
2022-12-22T04:55:36.670Z,95.50
2022-12-22T04:58:07.615Z,95.80
2022-12-22T05:00:34.886Z,95.90
2022-12-22T05:03:08.666Z,95.70
2022-12-22T05:05:36.853Z,95.80
2022-12-22T05:08:16.283Z,95.80
2022-12-22T05:10:45.545Z,96.10
2022-12-22T05:13:17.711Z,95.70
2022-12-22T05:15:45.153Z,95.60
2022-12-22T05:18:18.000Z,96.00
2022-12-22T05:20:45.914Z,96.50
2022-12-22T05:23:13.785Z,96.70
2022-12-22T05:25:41.000Z,96.80
2022-12-22T05:28:08.909Z,97.00
2022-12-22T05:30:36.104Z,97.10
2022-12-22T05:33:12.751Z,97.40
2022-12-22T05:35:42.131Z,97.40
2022-12-22T05:38:14.835Z,97.50
2022-12-22T05:40:49.666Z,97.60
2022-12-22T05:43:17.334Z,97.80
2022-12-22T05:45:45.930Z,97.90
2022-12-22T05:48:13.830Z,98.10
2022-12-22T05:50:41.510Z,98.10
2022-12-22T05:53:12.642Z,98.20
2022-12-22T05:55:42.163Z,98.30
2022-12-22T05:58:21.939Z,98.10
2022-12-22T06:00:50.198Z,98.10
2022-12-22T06:03:17.332Z,98.10
2022-12-22T06:05:46.138Z,98.20
2022-12-22T06:08:13.471Z,98.10
2022-12-22T06:10:44.292Z,98.00
2022-12-22T06:13:11.978Z,98.10
2022-12-22T06:15:42.455Z,97.50
2022-12-22T06:18:19.000Z,97.60
2022-12-22T06:20:51.441Z,97.30
2022-12-22T06:23:25.680Z,97.40
2022-12-22T06:26:00.319Z,97.40
2022-12-22T06:28:37.154Z,97.40
2022-12-22T06:31:06.036Z,97.20
2022-12-22T06:33:35.014Z,97.20
2022-12-22T06:36:11.026Z,97.10
2022-12-22T06:38:42.754Z,96.90
2022-12-22T06:41:12.694Z,96.90
2022-12-22T06:44:06.877Z,96.90
2022-12-22T06:46:47.109Z,96.70
2022-12-22T06:49:18.188Z,96.70
2022-12-22T06:51:45.477Z,96.40
2022-12-22T06:54:26.103Z,96.10
2022-12-22T06:57:04.121Z,96.10
2022-12-22T06:59:32.072Z,96.00
2022-12-22T07:02:00.095Z,95.90
2022-12-22T07:04:34.507Z,95.80
2022-12-22T07:07:31.044Z,95.40
2022-12-22T07:10:11.961Z,95.40
2022-12-22T07:12:43.854Z,95.60
2022-12-22T07:15:22.531Z,95.50
2022-12-22T07:19:15.609Z,95.50
2022-12-22T07:21:51.196Z,95.00
2022-12-22T07:24:36.240Z,95.00
2022-12-22T07:27:12.198Z,95.30
2022-12-22T07:29:40.759Z,95.40
2022-12-22T07:32:09.677Z,95.30
2022-12-22T07:34:40.514Z,95.40
2022-12-22T07:37:09.567Z,95.30
2022-12-22T07:39:39.323Z,95.30
2022-12-22T07:42:39.036Z,95.60
2022-12-22T07:46:04.079Z,95.80
2022-12-22T07:49:30.519Z,95.40
2022-12-22T07:51:45.277Z,95.20
2022-12-22T07:54:15.750Z,95.40
2022-12-22T07:57:07.003Z,95.50
2022-12-22T07:59:39.423Z,95.40
2022-12-22T08:02:12.040Z,95.10
2022-12-22T08:04:40.389Z,95.10
2022-12-22T08:07:11.454Z,95.00
2022-12-22T08:09:47.873Z,94.60
2022-12-22T08:12:18.763Z,94.60
2022-12-22T08:14:49.637Z,94.10
2022-12-22T08:17:21.351Z,93.90
2022-12-22T08:19:57.851Z,94.00
2022-12-22T08:22:28.572Z,94.30
2022-12-22T08:24:56.517Z,94.70
2022-12-22T08:27:41.116Z,94.70
2022-12-22T08:30:10.573Z,94.50
2022-12-22T08:32:42.141Z,94.20
2022-12-22T08:35:36.953Z,94.10
2022-12-22T08:38:46.291Z,93.80
2022-12-22T08:41:57.315Z,93.70
2022-12-22T09:02:13.710Z,94.60
2022-12-22T09:27:34.735Z,93.60
2022-12-22T09:30:06.878Z,93.50
2022-12-22T09:32:42.514Z,93.40
2022-12-22T09:35:18.697Z,93.20
2022-12-22T09:37:47.174Z,93.30
2022-12-22T09:40:21.982Z,93.00
2022-12-22T09:42:50.107Z,92.90
2022-12-22T09:45:27.530Z,92.70
2022-12-22T09:51:03.943Z,92.80
2022-12-22T09:53:38.059Z,92.50
2022-12-22T09:56:20.164Z,94.20
2022-12-22T09:59:39.543Z,93.80
2022-12-22T10:02:48.729Z,92.60
2022-12-22T10:06:44.770Z,92.50
2022-12-22T10:09:55.912Z,92.10
2022-12-22T10:12:37.145Z,91.50
2022-12-22T10:21:58.377Z,91.50
2022-12-22T10:29:34.523Z,91.60
2022-12-22T10:32:21.702Z,91.70
2022-12-22T10:35:09.452Z,91.50
2022-12-22T10:37:54.923Z,91.60
2022-12-22T10:40:33.852Z,91.30
2022-12-22T10:43:24.741Z,91.70
2022-12-22T10:52:48.350Z,91.90
2022-12-22T10:55:31.367Z,91.90
2022-12-22T10:58:21.914Z,91.80
2022-12-22T11:01:18.969Z,91.90
2022-12-22T11:07:55.951Z,92.00
2022-12-22T11:11:14.115Z,92.30
2022-12-22T11:14:05.318Z,92.50
2022-12-22T11:17:04.198Z,92.10
2022-12-22T11:20:26.892Z,92.20
2022-12-22T11:23:15.512Z,92.10
2022-12-22T11:29:58.616Z,92.10
2022-12-22T11:36:07.215Z,92.40
2022-12-22T11:39:07.221Z,92.40
2022-12-22T11:42:12.055Z,92.30
2022-12-22T11:45:11.084Z,92.20
2022-12-22T11:48:22.122Z,92.10
2022-12-22T11:51:44.074Z,92.30
2022-12-22T11:57:31.249Z,92.40
2022-12-22T12:00:32.562Z,92.50
2022-12-22T12:03:56.376Z,92.40
2022-12-22T12:06:49.032Z,92.50
2022-12-22T12:09:36.844Z,92.30
2022-12-22T12:12:32.178Z,92.50
2022-12-22T12:15:24.417Z,92.50
2022-12-22T12:18:24.240Z,92.60
2022-12-22T12:22:21.671Z,92.80
2022-12-22T12:29:24.779Z,93.20
2022-12-22T12:32:12.700Z,93.00
2022-12-22T12:35:00.554Z,93.00
2022-12-22T12:38:56.337Z,93.20
2022-12-22T12:41:39.856Z,93.30
2022-12-22T12:44:32.525Z,93.30
2022-12-22T12:47:18.148Z,93.50
2022-12-22T12:50:04.590Z,93.50
2022-12-22T12:52:50.184Z,93.60
2022-12-22T12:55:53.104Z,93.50
2022-12-22T12:58:42.168Z,93.60
2022-12-22T13:01:29.800Z,93.40
2022-12-22T13:04:03.625Z,93.60
2022-12-22T13:06:52.130Z,93.40
2022-12-22T13:12:41.859Z,93.30
2022-12-22T13:16:13.162Z,93.10
2022-12-22T13:18:51.495Z,93.00
2022-12-22T13:24:49.477Z,93.10
2022-12-22T13:27:20.552Z,93.20
2022-12-22T13:29:52.912Z,93.10
2022-12-22T13:32:28.281Z,93.20
2022-12-22T13:35:33.092Z,93.10
2022-12-22T13:38:02.827Z,92.90
2022-12-22T13:40:42.857Z,92.70
2022-12-22T13:43:21.299Z,92.60
2022-12-22T13:48:55.597Z,93.00
2022-12-22T13:51:29.537Z,92.90
2022-12-22T13:54:09.203Z,93.10
2022-12-22T13:56:47.311Z,93.10
2022-12-22T13:59:34.977Z,93.20
2022-12-22T14:02:10.312Z,93.10
2022-12-22T14:04:40.962Z,93.20
2022-12-22T14:07:13.449Z,93.20
2022-12-22T14:12:46.359Z,93.10
2022-12-22T14:15:20.849Z,93.10
2022-12-22T14:17:53.510Z,93.20
2022-12-22T14:20:41.161Z,93.20
2022-12-22T14:23:30.135Z,92.90
2022-12-22T14:26:05.348Z,93.10
2022-12-22T14:28:53.273Z,92.90
2022-12-22T14:31:28.724Z,93.00
2022-12-22T14:39:56.394Z,92.70
2022-12-22T14:42:24.955Z,92.80
2022-12-22T14:44:57.883Z,92.90
2022-12-22T14:47:27.226Z,93.10
2022-12-22T14:50:04.924Z,93.20
2022-12-22T14:52:55.303Z,93.30
2022-12-22T14:55:52.382Z,93.30
2022-12-22T14:58:31.506Z,93.20
2022-12-22T15:01:30.094Z,93.30
2022-12-22T15:04:23.672Z,93.40
2022-12-22T15:08:03.081Z,93.10
2022-12-22T15:10:15.984Z,93.20
2022-12-22T15:12:49.709Z,93.10
2022-12-22T15:15:24.436Z,93.00
2022-12-22T15:17:54.379Z,93.00
2022-12-22T15:20:38.579Z,93.20
2022-12-22T15:23:17.513Z,93.20
2022-12-22T15:25:55.150Z,93.00
2022-12-22T15:28:23.760Z,93.30
2022-12-22T15:30:51.554Z,93.20
2022-12-22T15:36:53.639Z,93.30
2022-12-22T15:39:22.568Z,93.20
2022-12-22T15:41:58.800Z,93.10
2022-12-22T15:44:31.060Z,93.20
2022-12-22T15:47:03.123Z,93.10
2022-12-22T15:49:39.156Z,93.00
2022-12-22T15:52:09.042Z,92.90
2022-12-22T15:54:44.942Z,92.90
2022-12-22T15:57:16.719Z,93.00
2022-12-22T15:59:46.876Z,93.00
2022-12-22T16:02:18.229Z,92.80
2022-12-22T16:04:47.894Z,93.00
2022-12-22T16:07:18.869Z,92.90
2022-12-22T16:09:47.875Z,92.90
2022-12-22T16:12:20.046Z,93.00
2022-12-22T16:14:52.160Z,93.00
2022-12-22T16:17:31.228Z,92.70
2022-12-22T16:20:00.290Z,92.80
2022-12-22T16:22:42.163Z,92.80
2022-12-22T16:25:27.678Z,92.90
2022-12-22T16:27:58.891Z,93.00
2022-12-22T16:30:33.332Z,92.60
2022-12-22T16:33:01.243Z,92.80
2022-12-22T16:36:02.331Z,92.90
2022-12-22T16:38:35.289Z,92.80
2022-12-22T16:41:16.860Z,92.80
2022-12-22T16:46:38.584Z,92.60
2022-12-22T16:49:11.339Z,92.80
2022-12-22T16:51:47.680Z,92.90
2022-12-22T16:54:20.700Z,92.80
2022-12-22T16:56:53.357Z,93.00
2022-12-22T16:59:23.694Z,93.10
2022-12-22T17:02:14.471Z,93.00
2022-12-22T17:04:42.323Z,93.00
2022-12-22T17:07:18.549Z,93.10
2022-12-22T17:10:07.032Z,93.10
2022-12-22T17:12:46.103Z,93.20
2022-12-22T17:15:23.574Z,93.30
2022-12-22T17:18:02.113Z,93.20
2022-12-22T17:20:30.617Z,93.30
2022-12-22T17:23:15.905Z,93.70
2022-12-22T17:25:45.662Z,93.80
2022-12-22T17:28:20.552Z,94.00
2022-12-22T17:30:56.012Z,94.00
2022-12-22T17:33:50.739Z,94.10
2022-12-22T17:37:16.236Z,94.70
2022-12-22T17:39:56.521Z,94.70
2022-12-22T17:42:31.919Z,95.00
2022-12-22T17:45:10.776Z,95.00
2022-12-22T17:47:43.237Z,94.90
2022-12-22T17:50:23.935Z,94.70
2022-12-22T17:52:52.110Z,94.70
2022-12-22T17:56:05.915Z,94.70
2022-12-22T17:58:16.529Z,94.90
2022-12-22T18:00:47.439Z,94.90
2022-12-22T18:03:42.500Z,94.90
2022-12-22T18:06:18.013Z,95.00
2022-12-22T18:08:47.227Z,95.20
2022-12-22T18:11:21.907Z,95.20
2022-12-22T18:13:51.759Z,95.40
2022-12-22T18:16:24.348Z,95.30
2022-12-22T18:19:13.394Z,95.40
2022-12-22T18:21:44.006Z,95.50
2022-12-22T18:24:24.628Z,95.40
2022-12-22T18:26:58.207Z,95.60
2022-12-22T18:29:25.799Z,95.80
2022-12-22T18:32:02.224Z,95.80
2022-12-22T18:34:30.345Z,95.60
2022-12-22T18:36:58.424Z,95.70
2022-12-22T18:39:41.727Z,95.80
2022-12-22T18:42:40.672Z,95.80
2022-12-22T18:45:22.662Z,95.80
2022-12-22T18:47:53.584Z,95.70
2022-12-22T18:50:40.894Z,95.60
2022-12-22T18:53:25.980Z,95.50
2022-12-22T18:55:53.842Z,95.80
2022-12-22T18:58:31.470Z,95.90
2022-12-22T19:01:02.782Z,96.00
2022-12-22T19:03:35.531Z,96.30
2022-12-22T19:06:12.373Z,96.10
2022-12-22T19:08:45.822Z,96.40
2022-12-22T19:11:15.619Z,96.40
2022-12-22T19:13:51.889Z,96.30
2022-12-22T19:16:23.235Z,96.40
2022-12-22T19:18:50.646Z,96.30
2022-12-22T19:21:19.624Z,96.30
2022-12-22T19:23:52.810Z,96.30
2022-12-22T19:26:25.644Z,96.60
2022-12-22T19:29:41.379Z,96.30
2022-12-22T19:32:07.335Z,96.10
2022-12-22T19:34:38.159Z,96.00
2022-12-22T19:40:05.944Z,96.00
2022-12-22T19:42:40.182Z,96.20
2022-12-22T19:45:35.050Z,96.10
2022-12-22T19:48:19.864Z,95.90
2022-12-22T19:50:49.723Z,96.10
2022-12-22T19:53:17.341Z,96.10
2022-12-22T19:55:52.689Z,96.10
2022-12-22T19:58:34.680Z,96.40
2022-12-22T20:01:13.347Z,96.60
2022-12-22T20:04:30.968Z,96.60
2022-12-22T20:06:36.771Z,96.60
2022-12-22T20:09:13.960Z,96.70
2022-12-22T20:11:46.663Z,96.60
2022-12-22T20:14:18.794Z,96.70
2022-12-22T20:16:48.575Z,96.80
2022-12-22T20:19:24.193Z,96.80
2022-12-22T20:21:54.262Z,96.80
2022-12-22T20:24:32.225Z,97.00
2022-12-22T20:27:02.250Z,97.10
2022-12-22T20:29:38.520Z,97.00
2022-12-22T20:32:09.530Z,97.10
2022-12-22T20:34:41.978Z,97.10
2022-12-22T20:37:27.053Z,97.00
2022-12-22T20:40:11.331Z,96.80
2022-12-22T20:43:10.524Z,96.80
2022-12-22T20:45:37.896Z,97.00
2022-12-22T20:48:08.024Z,96.70
2022-12-22T20:50:35.987Z,96.70
2022-12-22T20:53:05.873Z,96.80
2022-12-22T20:55:59.464Z,96.70
2022-12-22T20:58:54.877Z,97.00
2022-12-22T21:01:38.905Z,96.90
2022-12-22T21:04:29.412Z,97.10
2022-12-22T21:07:05.111Z,97.10
2022-12-22T21:09:48.830Z,97.30
2022-12-22T21:12:20.496Z,97.40
2022-12-22T21:14:49.714Z,97.30
2022-12-22T21:17:18.363Z,97.40
2022-12-22T21:19:46.157Z,97.30
2022-12-22T21:22:13.209Z,97.40
2022-12-22T21:24:42.095Z,97.40
2022-12-22T21:27:18.564Z,97.50
2022-12-22T21:29:47.132Z,97.60
2022-12-22T21:32:17.476Z,97.80
2022-12-22T21:34:44.505Z,97.80
2022-12-22T21:37:18.604Z,97.70
2022-12-22T21:39:56.195Z,98.00
2022-12-22T21:42:23.548Z,98.00
2022-12-22T21:44:53.882Z,97.70
2022-12-22T21:47:21.647Z,97.70
2022-12-22T21:49:49.713Z,97.60
2022-12-22T21:52:16.987Z,97.60
2022-12-22T21:54:47.567Z,97.70
2022-12-22T21:57:18.866Z,97.90
2022-12-22T21:59:49.498Z,97.40
2022-12-22T22:02:18.097Z,97.30
2022-12-22T22:04:52.046Z,97.40
2022-12-22T22:07:27.512Z,97.50
2022-12-22T22:09:55.854Z,97.40
2022-12-22T22:12:37.282Z,97.40
2022-12-22T22:15:06.352Z,97.50
2022-12-22T22:17:34.606Z,97.50
2022-12-22T22:20:01.933Z,97.70
2022-12-22T22:22:33.793Z,98.00
2022-12-22T22:25:01.078Z,98.10
2022-12-22T22:27:33.003Z,97.60
2022-12-22T22:30:05.074Z,97.40
2022-12-22T22:32:32.797Z,97.30
2022-12-22T22:35:03.948Z,97.10
2022-12-22T22:37:38.694Z,97.10
2022-12-22T22:40:10.026Z,96.90
2022-12-22T22:42:37.792Z,97.00
2022-12-22T22:45:09.031Z,96.90
2022-12-22T22:47:36.227Z,96.90
2022-12-22T22:50:09.139Z,97.10
2022-12-22T22:52:39.098Z,97.10
2022-12-22T22:55:15.486Z,97.00
2022-12-22T22:57:43.226Z,97.00
2022-12-22T23:00:13.189Z,96.90
2022-12-22T23:02:40.602Z,96.90
2022-12-22T23:05:09.098Z,96.90
2022-12-22T23:07:46.405Z,96.50
2022-12-22T23:10:20.114Z,96.40
2022-12-22T23:12:51.320Z,96.10
2022-12-22T23:15:26.343Z,95.90
2022-12-22T23:17:58.280Z,96.10
2022-12-22T23:20:29.141Z,96.10
2022-12-22T23:22:59.497Z,96.30
2022-12-22T23:25:26.702Z,96.20
2022-12-22T23:28:04.195Z,96.40
2022-12-22T23:30:31.593Z,96.50
2022-12-22T23:32:58.847Z,96.50
2022-12-22T23:35:28.800Z,96.40
2022-12-22T23:37:58.884Z,96.50
2022-12-22T23:40:51.021Z,96.50
2022-12-22T23:43:16.063Z,96.30
2022-12-22T23:45:44.333Z,96.40
2022-12-22T23:48:11.760Z,96.30
2022-12-22T23:50:38.820Z,96.10
2022-12-22T23:53:06.021Z,96.30
2022-12-22T23:55:34.031Z,96.00
2022-12-22T23:58:03.962Z,95.90
